createdAt,value
2023-03-16T00:00:45.027Z,91.40
2023-03-16T00:01:48.286Z,90.35
2023-03-16T00:02:51.402Z,90.23
2023-03-16T00:03:55.216Z,90.79
2023-03-16T00:05:01.844Z,90.28
2023-03-16T00:06:04.588Z,91.03
2023-03-16T00:07:10.187Z,91.12
2023-03-16T00:08:13.107Z,91.79
2023-03-16T00:09:15.786Z,91.53
2023-03-16T00:10:18.983Z,91.29
2023-03-16T00:11:21.625Z,91.09
2023-03-16T00:12:26.361Z,91.80
2023-03-16T00:13:29.956Z,90.43
2023-03-16T00:14:38.403Z,91.33
2023-03-16T00:15:55.983Z,90.76
2023-03-16T00:16:59.299Z,91.25
2023-03-16T00:18:02.765Z,90.57
2023-03-16T00:19:05.975Z,90.48
2023-03-16T00:20:09.969Z,89.63
2023-03-16T00:21:14.200Z,90.18
2023-03-16T00:22:17.141Z,90.20
2023-03-16T00:23:27.104Z,90.25
2023-03-16T00:24:30.109Z,90.05
2023-03-16T00:25:33.703Z,90.69
2023-03-16T00:26:36.431Z,90.26
2023-03-16T00:27:39.178Z,90.84
2023-03-16T00:28:42.813Z,90.48
2023-03-16T00:29:48.193Z,90.48
2023-03-16T00:30:51.524Z,90.69
2023-03-16T00:31:54.359Z,90.54
2023-03-16T00:32:57.298Z,90.15
2023-03-16T00:34:00.246Z,90.38
2023-03-16T00:35:05.244Z,90.84
2023-03-16T00:36:11.446Z,90.52
2023-03-16T00:37:17.117Z,90.48
2023-03-16T00:38:20.638Z,90.66
2023-03-16T00:39:23.817Z,90.63
2023-03-16T00:40:26.822Z,90.75
2023-03-16T00:41:30.515Z,91.06
2023-03-16T00:42:34.907Z,91.18
2023-03-16T00:43:45.428Z,90.94
2023-03-16T00:44:48.453Z,90.35
2023-03-16T00:45:52.474Z,90.34
2023-03-16T00:46:57.343Z,89.34
2023-03-16T00:48:00.189Z,89.02
2023-03-16T00:49:02.940Z,87.02
2023-03-16T00:50:07.848Z,88.66
2023-03-16T00:51:14.946Z,89.05
2023-03-16T00:52:17.716Z,89.52
2023-03-16T00:53:22.296Z,89.33
2023-03-16T00:54:25.073Z,89.66
2023-03-16T00:55:28.608Z,89.40
2023-03-16T00:56:31.935Z,89.07
2023-03-16T00:57:35.497Z,88.01
2023-03-16T00:58:40.510Z,87.63
2023-03-16T00:59:47.838Z,87.88
2023-03-16T01:00:52.188Z,87.82
2023-03-16T01:01:55.858Z,87.07
2023-03-16T01:02:58.644Z,87.10
2023-03-16T01:04:01.848Z,88.05
2023-03-16T01:05:05.830Z,87.71
2023-03-16T01:06:13.764Z,87.64
2023-03-16T01:07:24.604Z,86.64
2023-03-16T01:08:30.754Z,87.05
2023-03-16T01:09:37.081Z,87.32
2023-03-16T01:10:40.810Z,86.63
2023-03-16T01:11:44.519Z,86.30
2023-03-16T01:12:47.252Z,85.84
2023-03-16T01:13:54.370Z,85.54
2023-03-16T01:14:57.473Z,85.78
2023-03-16T01:16:01.855Z,86.46
2023-03-16T01:17:08.639Z,85.63
2023-03-16T01:18:13.460Z,85.82
2023-03-16T01:19:16.579Z,85.37
2023-03-16T01:20:19.584Z,85.47
2023-03-16T01:21:23.003Z,85.54
2023-03-16T01:22:27.137Z,85.88
2023-03-16T01:23:31.547Z,85.22
2023-03-16T01:24:37.237Z,85.58
2023-03-16T01:25:41.343Z,85.69
2023-03-16T01:26:45.272Z,85.47
2023-03-16T01:27:48.687Z,85.29
2023-03-16T01:28:51.723Z,85.22
2023-03-16T01:29:54.828Z,85.20
2023-03-16T01:31:06.824Z,85.30
2023-03-16T01:32:10.404Z,84.47
2023-03-16T01:33:13.747Z,84.74
2023-03-16T01:34:18.693Z,85.25
2023-03-16T01:35:22.004Z,85.62
2023-03-16T01:36:25.547Z,84.57
2023-03-16T01:37:28.283Z,83.68
2023-03-16T01:38:32.047Z,84.34
2023-03-16T01:39:35.079Z,84.63
2023-03-16T01:40:38.249Z,84.11
2023-03-16T01:41:42.434Z,84.51
2023-03-16T01:43:00.988Z,83.88
2023-03-16T01:44:05.894Z,84.70
2023-03-16T01:45:47.902Z,84.42
2023-03-16T01:46:51.065Z,82.88
2023-03-16T01:47:53.810Z,83.33
2023-03-16T01:49:25.317Z,83.65
2023-03-16T01:50:28.897Z,84.15
2023-03-16T01:51:52.173Z,83.29
2023-03-16T01:52:55.070Z,83.59
2023-03-16T01:54:02.009Z,82.77
2023-03-16T01:55:09.353Z,83.57
2023-03-16T01:56:16.775Z,84.05
2023-03-16T01:57:35.409Z,82.83
2023-03-16T01:58:39.493Z,82.95
2023-03-16T01:59:52.926Z,82.96
2023-03-16T02:00:57.821Z,83.07
2023-03-16T02:02:02.681Z,83.93
2023-03-16T02:03:14.049Z,84.67
2023-03-16T02:04:23.110Z,83.81
2023-03-16T02:05:38.916Z,83.17
2023-03-16T02:06:42.611Z,83.28
2023-03-16T02:07:51.894Z,83.16
2023-03-16T02:08:57.040Z,83.56
2023-03-16T02:10:02.599Z,82.98
2023-03-16T02:11:08.618Z,82.56
2023-03-16T02:12:18.290Z,83.12
2023-03-16T02:13:26.118Z,84.50
2023-03-16T02:14:29.339Z,83.54
2023-03-16T02:15:32.645Z,83.79
2023-03-16T02:16:35.455Z,84.30
2023-03-16T02:17:38.771Z,84.53
2023-03-16T02:18:42.695Z,84.58
2023-03-16T02:20:19.706Z,83.99
2023-03-16T02:21:49.838Z,84.38
2023-03-16T02:22:56.951Z,83.93
2023-03-16T02:24:02.435Z,84.62
2023-03-16T02:25:06.337Z,85.33
2023-03-16T02:26:35.049Z,85.10
2023-03-16T02:27:51.773Z,84.42
2023-03-16T02:29:04.229Z,85.47
2023-03-16T02:30:15.817Z,84.67
2023-03-16T02:31:20.188Z,83.92
2023-03-16T02:32:26.502Z,83.80
2023-03-16T02:33:31.733Z,84.50
2023-03-16T02:34:35.463Z,83.55
2023-03-16T02:35:38.253Z,83.86
2023-03-16T02:36:45.853Z,83.86
2023-03-16T02:37:48.940Z,84.96
2023-03-16T02:38:52.103Z,82.99
2023-03-16T02:39:55.379Z,82.63
2023-03-16T02:41:07.088Z,83.48
2023-03-16T02:42:19.495Z,83.87
2023-03-16T02:43:27.747Z,83.49
2023-03-16T02:44:35.100Z,84.10
2023-03-16T02:45:50.199Z,83.25
2023-03-16T02:46:57.276Z,84.08
2023-03-16T02:48:05.535Z,84.82
2023-03-16T02:49:16.497Z,82.95
2023-03-16T02:50:19.782Z,83.53
2023-03-16T02:51:22.521Z,83.41
2023-03-16T02:52:25.295Z,83.25
2023-03-16T02:53:28.235Z,83.91
2023-03-16T02:54:31.222Z,82.58
2023-03-16T02:55:34.275Z,83.35
2023-03-16T02:56:37.213Z,82.90
2023-03-16T02:57:40.086Z,82.42
2023-03-16T02:58:42.999Z,83.40
2023-03-16T02:59:46.131Z,82.68
2023-03-16T03:00:49.320Z,82.36
2023-03-16T03:01:52.296Z,82.35
2023-03-16T03:02:55.008Z,82.66
2023-03-16T03:03:57.824Z,82.03
2023-03-16T03:05:02.092Z,82.27
2023-03-16T03:06:05.354Z,82.50
2023-03-16T03:07:09.683Z,81.93
2023-03-16T03:08:15.506Z,82.63
2023-03-16T03:09:20.055Z,82.36
2023-03-16T03:10:23.485Z,82.42
2023-03-16T03:11:26.817Z,82.52
2023-03-16T03:12:29.558Z,81.80
2023-03-16T03:13:32.178Z,81.90
2023-03-16T03:14:38.793Z,82.03
2023-03-16T03:15:41.469Z,82.29
2023-03-16T03:16:46.968Z,83.11
2023-03-16T03:17:50.367Z,81.98
2023-03-16T03:19:11.557Z,82.60
2023-03-16T03:22:10.689Z,82.41
2023-03-16T03:23:15.828Z,82.79
2023-03-16T03:24:19.287Z,82.80
2023-03-16T03:25:23.750Z,82.28
2023-03-16T03:26:28.538Z,83.23
2023-03-16T03:27:33.967Z,83.49
2023-03-16T03:28:40.289Z,82.85
2023-03-16T03:29:45.173Z,82.81
2023-03-16T03:30:48.336Z,83.98
2023-03-16T03:31:51.995Z,82.81
2023-03-16T03:32:55.717Z,82.62
2023-03-16T03:33:58.966Z,83.11
2023-03-16T03:35:02.580Z,83.00
2023-03-16T03:36:06.360Z,82.61
2023-03-16T03:37:10.592Z,82.66
2023-03-16T03:38:17.251Z,82.50
2023-03-16T03:39:20.817Z,82.41
2023-03-16T03:40:27.067Z,82.72
2023-03-16T03:41:33.424Z,83.16
2023-03-16T03:42:37.701Z,83.09
2023-03-16T03:43:41.893Z,83.16
2023-03-16T03:44:48.675Z,83.72
2023-03-16T03:45:58.176Z,83.88
2023-03-16T03:47:01.669Z,84.36
2023-03-16T03:48:05.244Z,83.51
2023-03-16T03:49:10.078Z,84.17
2023-03-16T03:50:14.169Z,84.50
2023-03-16T03:51:18.498Z,84.01
2023-03-16T03:52:22.022Z,83.62
2023-03-16T03:53:25.901Z,83.87
2023-03-16T03:54:30.198Z,84.26
2023-03-16T03:55:33.808Z,83.23
2023-03-16T03:56:37.303Z,83.12
2023-03-16T03:57:41.617Z,83.58
2023-03-16T03:58:44.839Z,83.92
2023-03-16T03:59:49.191Z,83.85
2023-03-16T04:00:56.610Z,83.88
2023-03-16T04:02:00.346Z,83.68
2023-03-16T04:03:04.725Z,83.31
2023-03-16T04:04:08.375Z,83.03
2023-03-16T04:05:11.826Z,83.72
2023-03-16T04:06:15.119Z,82.31
2023-03-16T04:07:18.793Z,82.59
2023-03-16T04:08:22.261Z,81.33
2023-03-16T04:09:25.689Z,82.73
2023-03-16T04:10:31.174Z,82.07
2023-03-16T04:11:35.059Z,82.51
2023-03-16T04:12:43.275Z,82.30
2023-03-16T04:13:52.741Z,82.20
2023-03-16T04:14:55.564Z,82.23
2023-03-16T04:16:03.224Z,83.28
2023-03-16T04:17:07.815Z,83.68
2023-03-16T04:18:14.173Z,82.89
2023-03-16T04:19:19.128Z,83.42
2023-03-16T04:20:24.053Z,83.25
2023-03-16T04:21:27.982Z,83.78
2023-03-16T04:22:31.558Z,83.23
2023-03-16T04:23:35.349Z,82.97
2023-03-16T04:24:38.940Z,83.22
2023-03-16T04:25:42.743Z,82.98
2023-03-16T04:26:46.980Z,83.74
2023-03-16T04:27:50.479Z,83.33
2023-03-16T04:28:54.554Z,83.43
2023-03-16T04:30:00.187Z,83.68
2023-03-16T04:31:09.536Z,83.12
2023-03-16T04:32:13.471Z,83.72
2023-03-16T04:33:17.285Z,83.58
2023-03-16T04:34:25.603Z,83.07
2023-03-16T04:35:29.673Z,83.61
2023-03-16T04:36:33.568Z,82.87
2023-03-16T04:37:37.667Z,82.69
2023-03-16T04:38:42.559Z,82.52
2023-03-16T04:39:46.843Z,82.75
2023-03-16T04:40:50.522Z,82.77
2023-03-16T04:41:54.319Z,83.65
2023-03-16T04:42:57.863Z,83.68
2023-03-16T04:44:01.054Z,83.89
2023-03-16T04:45:05.219Z,84.01
2023-03-16T04:46:16.267Z,84.17
2023-03-16T04:47:19.819Z,83.90
2023-03-16T04:48:23.153Z,84.15
2023-03-16T04:49:27.052Z,84.21
2023-03-16T04:50:32.075Z,84.48
2023-03-16T04:51:38.067Z,84.63
2023-03-16T04:52:41.791Z,84.80
2023-03-16T04:53:45.259Z,85.05
2023-03-16T04:54:48.651Z,85.42
2023-03-16T04:55:53.157Z,85.46
2023-03-16T04:56:56.483Z,85.71
2023-03-16T04:58:00.797Z,84.85
2023-03-16T04:59:06.123Z,85.16
2023-03-16T05:00:21.597Z,85.63
2023-03-16T05:01:25.869Z,85.84
2023-03-16T05:02:30.110Z,85.87
2023-03-16T05:03:35.618Z,86.14
2023-03-16T05:04:39.164Z,86.31
2023-03-16T05:05:45.898Z,86.79
2023-03-16T05:06:51.964Z,87.00
2023-03-16T05:07:57.797Z,86.97
2023-03-16T05:09:04.324Z,87.50
2023-03-16T05:10:11.678Z,88.07
2023-03-16T05:11:15.123Z,88.44
2023-03-16T05:12:22.312Z,88.66
2023-03-16T05:13:27.296Z,87.93
2023-03-16T05:14:30.428Z,88.00
2023-03-16T05:15:34.435Z,88.03
2023-03-16T05:16:38.454Z,88.13
2023-03-16T05:17:42.744Z,88.45
2023-03-16T05:18:46.178Z,88.60
2023-03-16T05:19:49.891Z,89.21
2023-03-16T05:20:56.369Z,89.27
2023-03-16T05:22:00.326Z,89.12
2023-03-16T05:23:03.544Z,89.45
2023-03-16T05:24:07.689Z,89.16
2023-03-16T05:25:15.107Z,89.52
2023-03-16T05:26:20.949Z,89.60
2023-03-16T05:27:27.284Z,88.81
2023-03-16T05:28:31.619Z,89.00
2023-03-16T05:29:36.632Z,89.61
2023-03-16T05:30:39.910Z,90.22
2023-03-16T05:31:50.723Z,88.54
2023-03-16T05:32:54.959Z,88.04
2023-03-16T05:33:58.969Z,88.02
2023-03-16T05:35:03.405Z,88.59
2023-03-16T05:36:07.257Z,89.24
2023-03-16T05:37:10.964Z,89.05
2023-03-16T05:38:14.208Z,89.24
2023-03-16T05:39:17.522Z,89.25
2023-03-16T05:40:23.514Z,89.00
2023-03-16T05:41:27.075Z,89.46
2023-03-16T05:42:30.730Z,88.59
2023-03-16T05:43:35.242Z,89.04
2023-03-16T05:44:40.361Z,89.23
2023-03-16T05:45:45.253Z,88.99
2023-03-16T05:46:49.266Z,88.20
2023-03-16T05:47:53.656Z,88.68
2023-03-16T05:48:56.965Z,88.88
2023-03-16T05:50:00.387Z,88.40
2023-03-16T05:51:06.543Z,88.81
2023-03-16T05:52:11.486Z,88.58
2023-03-16T05:53:15.853Z,88.22
2023-03-16T05:54:19.482Z,88.02
2023-03-16T05:55:24.028Z,88.18
2023-03-16T05:56:29.519Z,88.29
2023-03-16T05:57:34.410Z,88.13
2023-03-16T05:58:39.114Z,88.98
2023-03-16T05:59:42.703Z,88.97
2023-03-16T06:00:48.456Z,89.18
2023-03-16T06:01:56.986Z,88.66
2023-03-16T06:03:02.524Z,87.59
2023-03-16T06:04:07.137Z,88.52
2023-03-16T06:05:12.849Z,88.15
2023-03-16T06:06:17.547Z,88.26
2023-03-16T06:07:23.544Z,88.34
2023-03-16T06:08:30.768Z,87.66
2023-03-16T06:09:36.703Z,87.69
2023-03-16T06:10:42.389Z,87.04
2023-03-16T06:11:45.431Z,86.68
2023-03-16T06:12:51.327Z,86.53
2023-03-16T06:13:58.292Z,86.17
2023-03-16T06:15:02.974Z,86.69
2023-03-16T06:16:06.912Z,86.50
2023-03-16T06:17:10.347Z,85.83
2023-03-16T06:18:15.798Z,85.40
2023-03-16T06:19:20.848Z,85.94
2023-03-16T06:20:27.327Z,86.34
2023-03-16T06:21:31.805Z,86.84
2023-03-16T06:22:39.516Z,87.81
2023-03-16T06:23:44.131Z,87.83
2023-03-16T06:24:47.322Z,86.85
2023-03-16T06:25:55.011Z,86.70
2023-03-16T06:26:58.315Z,86.61
2023-03-16T06:28:02.213Z,86.35
2023-03-16T06:29:05.991Z,86.24
2023-03-16T06:30:12.574Z,87.26
2023-03-16T06:31:15.498Z,86.64
2023-03-16T06:32:20.438Z,84.55
2023-03-16T06:33:25.035Z,84.42
2023-03-16T06:34:28.651Z,84.29
2023-03-16T06:35:31.750Z,83.47
2023-03-16T06:36:35.646Z,84.10
2023-03-16T06:37:41.269Z,84.22
2023-03-16T06:38:45.934Z,83.78
2023-03-16T06:39:50.610Z,83.60
2023-03-16T06:40:55.367Z,84.58
2023-03-16T06:41:58.596Z,84.40
2023-03-16T06:43:02.202Z,83.46
2023-03-16T06:44:06.669Z,83.47
2023-03-16T06:45:11.376Z,83.35
2023-03-16T06:46:14.341Z,82.05
2023-03-16T06:47:17.467Z,82.04
2023-03-16T06:48:20.278Z,82.40
2023-03-16T06:49:23.305Z,81.82
2023-03-16T06:50:27.741Z,82.47
2023-03-16T06:51:31.759Z,81.32
2023-03-16T06:52:34.708Z,82.76
2023-03-16T06:53:37.525Z,81.62
2023-03-16T06:54:41.732Z,80.83
2023-03-16T06:55:45.125Z,80.15
2023-03-16T06:56:47.914Z,81.11
2023-03-16T06:57:51.942Z,81.03
2023-03-16T06:58:55.081Z,81.40
2023-03-16T06:59:57.982Z,81.48
2023-03-16T07:01:05.080Z,81.99
2023-03-16T07:02:08.041Z,82.18
2023-03-16T07:03:10.916Z,82.21
2023-03-16T07:04:14.503Z,82.52
2023-03-16T07:05:18.014Z,81.82
2023-03-16T07:06:21.625Z,82.25
2023-03-16T07:07:24.666Z,81.80
2023-03-16T07:08:27.497Z,81.75
2023-03-16T07:09:30.777Z,81.72
2023-03-16T07:10:35.218Z,81.18
2023-03-16T07:11:40.072Z,80.86
2023-03-16T07:12:44.502Z,80.72
2023-03-16T07:13:48.034Z,81.56
2023-03-16T07:14:54.068Z,81.11
2023-03-16T07:15:57.575Z,81.36
2023-03-16T07:17:02.216Z,80.72
2023-03-16T07:18:05.533Z,81.37
2023-03-16T07:19:08.884Z,81.10
2023-03-16T07:20:13.269Z,80.83
2023-03-16T07:21:16.565Z,81.12
2023-03-16T07:22:20.602Z,80.83
2023-03-16T07:23:25.305Z,81.18
2023-03-16T07:24:28.726Z,80.77
2023-03-16T07:25:31.813Z,78.97
2023-03-16T07:26:35.837Z,78.32
2023-03-16T07:27:41.784Z,78.76
2023-03-16T07:28:45.712Z,78.59
2023-03-16T07:29:48.992Z,79.54
2023-03-16T07:31:02.889Z,78.55
2023-03-16T07:32:07.065Z,77.44
2023-03-16T07:33:12.321Z,77.64
2023-03-16T07:34:15.741Z,77.24
2023-03-16T07:35:19.163Z,75.38
2023-03-16T07:36:22.291Z,76.35
2023-03-16T07:37:26.565Z,76.54
2023-03-16T07:38:33.164Z,76.18
2023-03-16T07:39:39.511Z,76.26
2023-03-16T07:40:44.000Z,76.60
2023-03-16T07:41:47.787Z,75.99
2023-03-16T07:42:51.833Z,76.88
2023-03-16T07:43:59.082Z,76.08
2023-03-16T07:45:03.368Z,76.26
2023-03-16T07:46:06.891Z,75.79
2023-03-16T07:47:13.057Z,76.22
2023-03-16T07:48:17.919Z,74.13
2023-03-16T07:49:21.839Z,74.96
2023-03-16T07:50:25.876Z,74.29
2023-03-16T07:51:29.946Z,74.43
2023-03-16T07:52:35.849Z,74.34
2023-03-16T07:53:41.574Z,73.73
2023-03-16T07:54:46.377Z,71.71
2023-03-16T07:55:49.555Z,72.65
2023-03-16T07:56:53.935Z,71.96
2023-03-16T07:57:57.829Z,72.58
2023-03-16T07:59:02.122Z,72.45
2023-03-16T08:00:07.921Z,72.11
2023-03-16T08:01:15.882Z,70.73
2023-03-16T08:02:22.105Z,71.44
2023-03-16T08:03:26.692Z,70.33
2023-03-16T08:04:30.532Z,70.53
2023-03-16T08:05:33.898Z,70.47
2023-03-16T08:06:37.521Z,69.28
2023-03-16T08:07:41.397Z,69.09
2023-03-16T08:08:44.823Z,69.95
2023-03-16T08:09:51.966Z,69.63
2023-03-16T08:10:58.893Z,68.83
2023-03-16T08:12:06.145Z,67.21
2023-03-16T08:13:11.079Z,67.44
2023-03-16T08:14:16.725Z,67.23
2023-03-16T08:15:21.809Z,66.87
2023-03-16T08:16:26.570Z,65.83
2023-03-16T08:17:30.526Z,67.42
2023-03-16T08:18:34.907Z,67.80
2023-03-16T08:19:39.009Z,66.04
2023-03-16T08:20:45.041Z,66.17
2023-03-16T08:22:00.728Z,66.88
2023-03-16T08:23:05.217Z,66.35
2023-03-16T08:24:11.289Z,65.08
2023-03-16T08:25:16.487Z,65.67
2023-03-16T08:26:25.671Z,64.41
2023-03-16T08:27:31.875Z,64.11
2023-03-16T08:28:36.715Z,64.36
2023-03-16T08:29:42.861Z,64.86
2023-03-16T08:30:50.050Z,65.17
2023-03-16T08:31:58.062Z,64.26
2023-03-16T08:33:03.278Z,64.80
2023-03-16T08:34:07.678Z,64.50
2023-03-16T08:35:16.942Z,64.06
2023-03-16T08:36:22.124Z,62.46
2023-03-16T08:37:28.974Z,63.31
2023-03-16T08:38:34.122Z,63.33
2023-03-16T08:39:37.543Z,63.10
2023-03-16T08:40:49.403Z,63.90
2023-03-16T08:41:55.144Z,64.31
2023-03-16T08:42:59.103Z,66.01
2023-03-16T08:44:03.616Z,65.24
2023-03-16T08:45:13.791Z,63.71
2023-03-16T08:46:17.913Z,64.72
2023-03-16T08:47:23.109Z,63.99
2023-03-16T08:48:26.734Z,63.71
2023-03-16T08:49:30.435Z,63.67
2023-03-16T08:50:35.586Z,64.60
2023-03-16T08:51:39.646Z,63.41
2023-03-16T08:52:42.959Z,63.46
2023-03-16T08:53:45.883Z,63.34
2023-03-16T08:55:02.048Z,62.65
2023-03-16T08:56:09.310Z,61.36
2023-03-16T08:57:12.937Z,62.99
2023-03-16T08:58:16.279Z,61.76
2023-03-16T08:59:29.043Z,61.25
2023-03-16T09:00:32.890Z,62.05
2023-03-16T09:01:36.441Z,61.83
2023-03-16T09:02:43.432Z,59.97
2023-03-16T09:03:46.694Z,60.69
2023-03-16T09:04:50.941Z,62.81
2023-03-16T09:06:00.887Z,62.11
2023-03-16T09:07:09.277Z,62.94
2023-03-16T09:08:13.465Z,64.30
2023-03-16T09:09:16.492Z,62.61
2023-03-16T09:10:23.571Z,64.85
2023-03-16T09:11:30.668Z,59.66
2023-03-16T09:12:38.409Z,61.57
2023-03-16T09:13:43.845Z,61.08
2023-03-16T09:14:46.751Z,61.63
2023-03-16T09:15:51.326Z,62.57
2023-03-16T09:16:54.764Z,62.12
2023-03-16T09:18:01.028Z,61.13
2023-03-16T09:19:06.290Z,62.56
2023-03-16T09:20:21.929Z,63.46
2023-03-16T09:21:29.841Z,61.54
2023-03-16T09:22:32.960Z,60.94
2023-03-16T09:23:41.906Z,61.55
2023-03-16T09:24:45.505Z,62.84
2023-03-16T09:25:48.899Z,62.85
2023-03-16T09:26:52.917Z,62.77
2023-03-16T09:27:55.818Z,63.75
2023-03-16T09:28:58.984Z,100.00
